createdAt,value
2018-04-02T00:01:47.363Z,58.87
2018-04-02T00:04:17.060Z,63.77
2018-04-02T00:06:47.191Z,48.20
2018-04-02T00:09:17.093Z,61.10
2018-04-02T00:11:46.439Z,56.20
2018-04-02T00:14:15.535Z,66.80
2018-04-02T00:16:44.707Z,60.60
2018-04-02T00:19:13.697Z,56.83
2018-04-02T00:21:42.900Z,53.87
2018-04-02T00:24:12.780Z,59.60
2018-04-02T00:26:42.664Z,54.60
2018-04-02T00:29:11.660Z,75.13
2018-04-02T00:31:40.782Z,54.83
2018-04-02T00:34:09.748Z,59.57
2018-04-02T00:36:38.874Z,47.20
2018-04-02T00:39:08.651Z,41.20
2018-04-02T00:41:38.131Z,51.53
2018-04-02T00:44:07.235Z,52.33
2018-04-02T00:46:37.347Z,49.03
2018-04-02T00:49:07.046Z,50.50
2018-04-02T00:51:36.123Z,47.90
2018-04-02T00:54:05.867Z,51.33
2018-04-02T00:56:35.687Z,57.30
2018-04-02T00:59:05.521Z,61.97
2018-04-02T01:01:34.625Z,49.60
2018-04-02T01:04:03.818Z,51.67
2018-04-02T01:06:33.091Z,42.37
2018-04-02T01:09:03.110Z,48.20
2018-04-02T01:11:32.990Z,49.33
2018-04-02T01:14:01.955Z,48.10
2018-04-02T01:16:31.083Z,41.17
2018-04-02T01:19:01.000Z,57.70
2018-04-02T01:21:30.168Z,55.00
2018-04-02T01:24:01.075Z,44.67
2018-04-02T01:26:30.202Z,58.50
2018-04-02T01:28:59.402Z,53.20
2018-04-02T01:31:28.466Z,48.47
2018-04-02T01:33:57.446Z,41.50
2018-04-02T01:36:26.246Z,40.17
2018-04-02T01:38:55.270Z,48.73
2018-04-02T01:41:24.375Z,49.37
2018-04-02T01:43:53.366Z,61.57
2018-04-02T01:46:22.467Z,50.53
2018-04-02T01:48:51.463Z,48.43
2018-04-02T01:51:20.586Z,43.53
2018-04-02T01:53:50.587Z,53.30
2018-04-02T01:56:19.851Z,54.23
2018-04-02T01:58:49.547Z,55.57
2018-04-02T02:01:18.610Z,42.43
2018-04-02T02:03:48.496Z,44.53
2018-04-02T02:06:17.970Z,59.27
2018-04-02T02:08:47.080Z,47.33
2018-04-02T02:11:17.920Z,50.63
2018-04-02T02:13:46.830Z,34.47
2018-04-02T02:16:15.899Z,48.13
2018-04-02T02:18:45.130Z,52.20
2018-04-02T02:21:14.194Z,41.63
2018-04-02T02:23:44.012Z,47.23
2018-04-02T02:26:14.493Z,47.27
2018-04-02T02:28:43.530Z,39.93
2018-04-02T02:31:12.830Z,45.07
2018-04-02T02:33:42.749Z,49.17
2018-04-02T02:36:12.622Z,53.53
2018-04-02T02:38:41.587Z,44.87
2018-04-02T02:41:10.695Z,49.50
2018-04-02T02:43:39.738Z,63.10
2018-04-02T02:46:08.850Z,36.57
2018-04-02T02:48:38.692Z,50.90
2018-04-02T02:51:07.966Z,46.87
2018-04-02T02:53:37.866Z,52.50
2018-04-02T02:56:07.180Z,48.03
2018-04-02T02:58:36.306Z,46.03
2018-04-02T03:01:05.681Z,57.80
2018-04-02T03:03:34.817Z,43.30
2018-04-02T03:06:03.942Z,40.43
2018-04-02T03:08:32.860Z,54.17
2018-04-02T03:11:01.936Z,38.70
2018-04-02T03:13:31.064Z,46.43
2018-04-02T03:16:00.119Z,47.17
2018-04-02T03:18:29.052Z,49.03
2018-04-02T03:20:58.546Z,45.67
2018-04-02T03:23:27.719Z,53.63
2018-04-02T03:25:56.987Z,38.33
2018-04-02T03:28:25.984Z,56.40
2018-04-02T03:30:55.156Z,45.80
2018-04-02T03:33:24.080Z,41.13
2018-04-02T03:35:53.348Z,43.93
2018-04-02T03:38:22.446Z,44.00
2018-04-02T03:40:52.563Z,51.07
2018-04-02T03:43:22.267Z,56.87
2018-04-02T03:45:51.470Z,49.00
2018-04-02T03:48:20.454Z,47.57
2018-04-02T03:50:49.531Z,46.40
2018-04-02T03:53:19.587Z,36.00
2018-04-02T03:55:48.818Z,53.77
2018-04-02T03:58:17.784Z,57.13
2018-04-02T04:00:46.911Z,44.63
2018-04-02T04:03:15.930Z,44.10
2018-04-02T04:05:45.026Z,55.80
2018-04-02T04:08:13.990Z,43.30
2018-04-02T04:10:43.122Z,46.77
2018-04-02T04:13:13.074Z,38.30
2018-04-02T04:15:42.478Z,48.77
2018-04-02T04:18:12.461Z,62.70
2018-04-02T04:20:41.727Z,43.60
2018-04-02T04:23:10.799Z,40.13
2018-04-02T04:25:40.099Z,37.77
2018-04-02T04:28:09.971Z,54.73
2018-04-02T04:30:39.111Z,63.30
2018-04-02T04:33:08.230Z,56.40
2018-04-02T04:35:37.519Z,44.30
2018-04-02T04:38:06.614Z,49.20
2018-04-02T04:40:35.838Z,49.17
2018-04-02T04:43:04.836Z,39.20
2018-04-02T04:45:33.958Z,38.83
2018-04-02T04:48:02.926Z,54.57
2018-04-02T04:50:32.059Z,44.87
2018-04-02T04:53:01.075Z,53.43
2018-04-02T04:55:30.186Z,46.90
2018-04-02T04:58:00.023Z,58.07
2018-04-02T05:00:29.298Z,43.47
2018-04-02T05:02:58.390Z,50.57
2018-04-02T05:05:27.590Z,39.93
2018-04-02T05:07:56.575Z,52.27
2018-04-02T05:10:25.510Z,48.10
2018-04-02T05:12:54.679Z,53.13
2018-04-02T05:15:24.629Z,48.10
2018-04-02T05:17:53.793Z,48.90
2018-04-02T05:20:23.041Z,35.00
2018-04-02T05:22:51.977Z,24.70
2018-04-02T05:25:22.036Z,18.87
2018-04-02T05:27:51.147Z,20.10
2018-04-02T05:30:21.108Z,19.37
2018-04-02T05:32:50.995Z,21.37
2018-04-02T05:35:20.096Z,24.43
2018-04-02T05:37:49.063Z,21.83
2018-04-02T05:40:18.193Z,21.67
2018-04-02T05:42:47.122Z,24.53
2018-04-02T05:45:16.248Z,34.50
2018-04-02T05:47:45.095Z,21.93
2018-04-02T05:50:14.211Z,15.27
2018-04-02T05:52:44.022Z,19.73
2018-04-02T05:55:13.843Z,20.80
2018-04-02T05:57:43.120Z,19.10
2018-04-02T06:00:12.643Z,20.53
2018-04-02T06:02:42.336Z,14.37
2018-04-02T06:05:11.388Z,24.00
2018-04-02T06:07:40.327Z,18.70
2018-04-02T06:10:09.434Z,19.93
2018-04-02T06:12:38.725Z,25.43
2018-04-02T06:15:07.823Z,24.47
2018-04-02T06:17:37.035Z,18.07
2018-04-02T06:20:06.553Z,24.83
2018-04-02T06:22:35.639Z,18.93
2018-04-02T06:25:04.871Z,19.00
2018-04-02T06:27:33.868Z,18.87
2018-04-02T06:30:02.991Z,22.07
2018-04-02T06:32:32.875Z,17.73
2018-04-02T06:35:01.973Z,21.67
2018-04-02T06:37:31.042Z,26.30
2018-04-02T06:40:00.342Z,19.80
2018-04-02T06:42:30.359Z,24.70
2018-04-02T06:45:00.003Z,20.13
2018-04-02T06:47:28.998Z,19.23
2018-04-02T06:49:58.193Z,29.60
2018-04-02T06:52:27.153Z,12.27
2018-04-02T06:54:56.318Z,23.50
2018-04-02T06:57:25.278Z,16.93
2018-04-02T06:59:54.478Z,19.20
2018-04-02T07:02:24.295Z,26.90
2018-04-02T07:04:53.590Z,17.10
2018-04-02T07:07:22.687Z,22.27
2018-04-02T07:09:51.683Z,20.80
2018-04-02T07:12:20.756Z,19.70
2018-04-02T07:14:50.536Z,24.73
2018-04-02T07:17:19.497Z,21.23
2018-04-02T07:19:48.659Z,27.73
2018-04-02T07:22:18.710Z,21.20
2018-04-02T07:24:47.910Z,15.67
2018-04-02T07:27:17.007Z,24.30
2018-04-02T07:29:46.070Z,21.77
2018-04-02T07:32:15.877Z,25.23
2018-04-02T07:34:45.443Z,21.43
2018-04-02T07:37:14.556Z,15.40
2018-04-02T07:39:43.651Z,25.10
2018-04-02T07:42:13.554Z,25.33
2018-04-02T07:44:42.804Z,23.50
2018-04-02T07:47:12.778Z,29.83
2018-04-02T07:49:42.050Z,15.50
2018-04-02T07:52:11.143Z,23.40
2018-04-02T07:54:40.418Z,19.30
2018-04-02T07:57:10.338Z,22.10
2018-04-02T07:59:39.563Z,23.80
2018-04-02T08:02:08.659Z,24.13
2018-04-02T08:04:37.830Z,27.47
2018-04-02T08:07:06.931Z,22.33
2018-04-02T08:09:36.232Z,22.53
2018-04-02T08:12:06.140Z,23.70
2018-04-02T08:14:35.375Z,24.47
2018-04-02T08:17:04.654Z,21.67
2018-04-02T08:19:34.769Z,23.33
2018-04-02T08:22:03.786Z,23.73
2018-04-02T08:24:33.271Z,18.93
2018-04-02T08:27:02.366Z,17.23
2018-04-02T08:29:32.517Z,17.97
2018-04-02T08:32:01.616Z,23.30
2018-04-02T08:34:30.739Z,25.40
2018-04-02T08:36:59.779Z,24.97
2018-04-02T08:39:28.978Z,23.97
2018-04-02T08:41:57.871Z,24.77
2018-04-02T08:44:27.062Z,21.60
2018-04-02T08:46:56.167Z,24.63
2018-04-02T08:49:26.180Z,18.20
2018-04-02T08:51:55.213Z,20.83
2018-04-02T08:54:24.483Z,17.87
2018-04-02T08:56:54.597Z,31.60
2018-04-02T08:59:23.827Z,23.03
2018-04-02T09:01:52.926Z,23.50
2018-04-02T09:04:22.198Z,16.23
2018-04-02T09:06:52.174Z,27.40
2018-04-02T09:09:21.443Z,22.50
2018-04-02T09:11:50.514Z,22.47
2018-04-02T09:14:20.618Z,17.27
2018-04-02T09:16:49.790Z,23.97
2018-04-02T09:19:19.605Z,22.03
2018-04-02T09:21:49.455Z,24.90
2018-04-02T09:24:18.581Z,20.00
2018-04-02T09:26:48.090Z,24.10
2018-04-02T09:29:17.228Z,32.83
2018-04-02T09:31:47.107Z,24.40
2018-04-02T09:34:16.514Z,26.93
2018-04-02T09:36:45.470Z,19.73
2018-04-02T09:39:14.643Z,30.70
2018-04-02T09:41:43.603Z,21.70
2018-04-02T09:44:12.722Z,20.47
2018-04-02T09:46:41.704Z,31.57
2018-04-02T09:49:10.819Z,26.63
2018-04-02T09:51:39.832Z,18.00
2018-04-02T09:54:08.962Z,22.10
2018-04-02T09:56:37.982Z,16.47
2018-04-02T09:59:07.010Z,28.70
2018-04-02T10:01:37.064Z,25.47
2018-04-02T10:04:09.110Z,23.57
2018-04-02T10:06:37.983Z,25.80
2018-04-02T10:09:07.350Z,22.07
2018-04-02T10:11:36.403Z,20.63
2018-04-02T10:14:05.475Z,24.30
2018-04-02T10:16:35.355Z,26.87
2018-04-02T10:19:04.627Z,17.83
2018-04-02T10:21:34.604Z,24.77
2018-04-02T10:24:03.879Z,25.60
2018-04-02T10:26:33.656Z,22.07
2018-04-02T10:29:02.859Z,20.97
2018-04-02T10:31:32.770Z,21.20
2018-04-02T10:34:02.891Z,19.13
2018-04-02T10:36:32.086Z,23.90
2018-04-02T10:39:01.324Z,24.43
2018-04-02T10:41:30.419Z,24.73
2018-04-02T10:43:59.692Z,27.53
2018-04-02T10:46:28.785Z,22.43
2018-04-02T10:48:58.688Z,24.70
2018-04-02T10:51:27.861Z,21.10
2018-04-02T10:53:57.732Z,24.93
2018-04-02T10:56:26.795Z,16.23
2018-04-02T10:58:55.762Z,17.17
2018-04-02T11:01:24.729Z,15.67
2018-04-02T11:03:53.831Z,20.43
2018-04-02T11:06:22.824Z,12.80
2018-04-02T11:08:51.945Z,20.33
2018-04-02T11:11:20.883Z,13.23
2018-04-02T11:13:50.926Z,18.93
2018-04-02T11:16:20.202Z,18.20
2018-04-02T11:18:49.914Z,16.00
2018-04-02T11:21:19.670Z,16.13
2018-04-02T11:23:48.927Z,19.70
2018-04-02T11:26:18.024Z,18.73
2018-04-02T11:28:48.070Z,19.00
2018-04-02T11:31:17.264Z,22.30
2018-04-02T11:33:46.540Z,21.37
2018-04-02T11:36:16.514Z,18.90
2018-04-02T11:38:45.788Z,14.60
2018-04-02T11:41:14.856Z,23.70
2018-04-02T11:43:45.035Z,17.93
2018-04-02T11:46:14.723Z,15.00
2018-04-02T11:48:43.847Z,14.57
2018-04-02T11:51:13.694Z,15.50
2018-04-02T11:53:42.901Z,21.63
2018-04-02T11:56:11.999Z,23.00
2018-04-02T11:58:42.117Z,26.30
2018-04-02T12:01:11.827Z,22.63
2018-04-02T12:03:40.955Z,17.63
2018-04-02T12:06:10.016Z,17.50
2018-04-02T12:08:39.963Z,18.67
2018-04-02T12:11:09.058Z,20.13
2018-04-02T12:13:38.331Z,15.53
2018-04-02T12:16:07.374Z,15.37
2018-04-02T12:18:36.563Z,23.50
2018-04-02T12:21:05.597Z,18.10
2018-04-02T12:23:34.787Z,23.00
2018-04-02T12:26:03.717Z,19.57
2018-04-02T12:28:32.879Z,14.53
2018-04-02T12:31:01.840Z,11.93
2018-04-02T12:33:31.076Z,18.90
2018-04-02T12:36:00.941Z,20.17
2018-04-02T12:38:30.113Z,17.80
2018-04-02T12:40:59.119Z,23.93
2018-04-02T12:43:28.310Z,17.13
2018-04-02T12:45:58.111Z,19.23
2018-04-02T12:48:28.194Z,14.47
2018-04-02T12:50:57.171Z,15.77
2018-04-02T12:53:26.304Z,18.27
2018-04-02T12:55:55.264Z,19.20
2018-04-02T12:58:24.390Z,16.80
2018-04-02T13:00:53.419Z,13.40
2018-04-02T13:03:22.811Z,20.70
2018-04-02T13:05:52.018Z,14.60
2018-04-02T13:08:21.526Z,15.33
2018-04-02T13:10:52.194Z,10.53
2018-04-02T13:13:21.318Z,20.70
2018-04-02T13:15:50.292Z,15.20
2018-04-02T13:18:19.414Z,12.60
2018-04-02T13:20:48.378Z,22.87
2018-04-02T13:23:18.466Z,19.50
2018-04-02T13:25:47.560Z,21.57
2018-04-02T13:28:16.763Z,17.83
2018-04-02T13:30:45.842Z,18.73
2018-04-02T13:33:14.992Z,20.13
2018-04-02T13:35:44.042Z,19.67
2018-04-02T13:38:13.256Z,16.63
2018-04-02T13:40:43.067Z,14.07
2018-04-02T13:43:12.258Z,18.30
2018-04-02T13:45:41.364Z,16.30
2018-04-02T13:48:11.375Z,15.53
2018-04-02T13:50:40.399Z,21.07
2018-04-02T13:53:09.773Z,22.77
2018-04-02T13:55:38.771Z,14.33
2018-04-02T13:58:07.903Z,16.13
2018-04-02T14:00:36.963Z,18.30
2018-04-02T14:03:06.979Z,18.17
2018-04-02T14:05:36.794Z,16.23
2018-04-02T14:08:06.112Z,15.30
2018-04-02T14:10:35.356Z,15.90
2018-04-02T14:13:05.270Z,16.33
2018-04-02T14:15:34.247Z,8.70
2018-04-02T14:18:04.806Z,15.90
2018-04-02T14:20:34.782Z,14.33
2018-04-02T14:23:04.054Z,22.83
2018-04-02T14:25:33.150Z,18.40
2018-04-02T14:28:03.677Z,12.80
2018-04-02T14:30:32.678Z,17.70
2018-04-02T14:33:01.849Z,21.40
2018-04-02T14:35:31.722Z,21.50
2018-04-02T14:38:01.094Z,17.03
2018-04-02T14:40:31.072Z,18.63
2018-04-02T14:43:00.443Z,13.30
2018-04-02T14:45:29.507Z,15.17
2018-04-02T14:47:59.586Z,21.83
2018-04-02T14:50:28.731Z,11.67
2018-04-02T14:52:58.063Z,14.10
2018-04-02T14:55:27.535Z,18.67
2018-04-02T14:57:57.550Z,20.63
2018-04-02T15:00:26.755Z,14.90
2018-04-02T15:02:55.986Z,17.07
2018-04-02T15:05:24.983Z,20.93
2018-04-02T15:07:54.102Z,18.60
2018-04-02T15:10:23.212Z,19.60
2018-04-02T15:12:52.230Z,13.27
2018-04-02T15:15:21.228Z,11.60
2018-04-02T15:17:51.253Z,15.03
2018-04-02T15:20:21.253Z,17.30
2018-04-02T15:22:50.562Z,16.33
2018-04-02T15:25:19.698Z,15.33
2018-04-02T15:27:48.866Z,13.43
2018-04-02T15:30:17.968Z,17.73
2018-04-02T15:32:47.264Z,11.13
2018-04-02T15:35:17.135Z,10.50
2018-04-02T15:37:46.669Z,10.57
2018-04-02T15:58:33.587Z,16.93
2018-04-02T16:01:03.427Z,15.30
2018-04-02T16:03:33.567Z,21.53
2018-04-02T16:06:03.579Z,18.47
2018-04-02T16:08:33.464Z,14.07
2018-04-02T16:11:02.320Z,17.00
2018-04-02T16:13:31.451Z,17.90
2018-04-02T16:16:00.406Z,15.07
2018-04-02T16:18:29.534Z,14.50
2018-04-02T16:20:58.571Z,16.13
2018-04-02T16:23:27.731Z,19.37
2018-04-02T16:25:56.659Z,17.90
2018-04-02T16:28:25.758Z,14.60
2018-04-02T16:30:55.598Z,16.87
2018-04-02T16:33:24.875Z,20.33
2018-04-02T16:35:53.968Z,11.93
2018-04-02T16:38:23.203Z,13.43
2018-04-02T16:40:52.268Z,19.33
2018-04-02T16:43:21.363Z,13.40
2018-04-02T16:45:51.099Z,13.43
2018-04-02T16:48:20.379Z,14.73
2018-04-02T16:50:49.475Z,16.87
2018-04-02T16:53:18.758Z,17.40
2018-04-02T16:55:47.699Z,14.60
2018-04-02T16:58:16.826Z,26.43
2018-04-02T17:00:46.706Z,18.93
2018-04-02T17:03:15.982Z,11.90
2018-04-02T17:05:45.080Z,11.40
2018-04-02T17:08:15.196Z,16.53
2018-04-02T17:10:44.834Z,19.93
2018-04-02T17:13:13.970Z,18.70
2018-04-02T17:15:43.845Z,13.00
2018-04-02T17:18:12.806Z,20.40
2018-04-02T17:20:41.934Z,22.53
2018-04-02T17:23:11.206Z,16.20
2018-04-02T17:25:41.083Z,14.87
2018-04-02T17:28:10.428Z,23.03
2018-04-02T17:30:39.551Z,20.50
2018-04-02T17:33:08.564Z,19.43
2018-04-02T17:35:37.643Z,26.20
2018-04-02T17:38:06.811Z,21.00
2018-04-02T17:40:35.915Z,14.00
2018-04-02T17:43:05.152Z,17.57
2018-04-02T17:45:34.144Z,19.00
2018-04-02T17:48:03.267Z,23.47
2018-04-02T17:50:32.192Z,25.50
2018-04-02T17:53:01.301Z,21.00
2018-04-02T17:55:31.130Z,19.93
2018-04-02T17:58:00.414Z,25.40
2018-04-02T18:00:29.511Z,21.63
2018-04-02T18:02:59.554Z,25.20
2018-04-02T18:05:28.642Z,18.43
2018-04-02T18:07:57.923Z,20.57
2018-04-02T18:10:27.018Z,21.17
2018-04-02T18:12:57.240Z,13.23
2018-04-02T18:15:26.835Z,21.10
2018-04-02T18:17:55.951Z,22.43
2018-04-02T18:20:25.132Z,19.13
2018-04-02T18:22:55.060Z,22.93
2018-04-02T18:25:24.954Z,20.00
2018-04-02T18:27:54.218Z,23.67
2018-04-02T18:30:23.416Z,20.00
2018-04-02T18:32:52.677Z,26.60
2018-04-02T18:35:21.776Z,16.10
2018-04-02T18:37:51.818Z,23.73
2018-04-02T18:40:20.815Z,25.23
2018-04-02T18:42:50.097Z,19.60
2018-04-02T18:45:20.070Z,25.10
2018-04-02T18:47:50.114Z,21.73
2018-04-02T18:50:19.118Z,21.63
2018-04-02T18:52:49.170Z,22.57
2018-04-02T18:55:18.236Z,21.33
2018-04-02T18:57:47.435Z,21.83
2018-04-02T19:00:17.407Z,16.60
2018-04-02T19:02:46.746Z,19.87
2018-04-02T19:05:15.850Z,24.30
2018-04-02T19:07:45.655Z,32.33
2018-04-02T19:10:14.555Z,25.30
2018-04-02T19:12:43.614Z,22.83
2018-04-02T19:15:12.580Z,23.40
2018-04-02T19:17:41.813Z,20.73
2018-04-02T19:20:10.775Z,18.40
2018-04-02T19:22:39.894Z,36.50
2018-04-02T19:25:08.862Z,19.60
2018-04-02T19:27:38.424Z,23.47
2018-04-02T19:30:07.635Z,22.47
2018-04-02T19:32:37.623Z,21.57
2018-04-02T19:35:06.583Z,19.30
2018-04-02T19:37:35.730Z,23.87
2018-04-02T19:40:04.882Z,22.57
2018-04-02T19:42:34.207Z,18.27
2018-04-02T19:45:04.156Z,21.90
2018-04-02T19:47:33.466Z,21.53
2018-04-02T19:50:03.307Z,22.67
2018-04-02T19:52:32.474Z,27.23
2018-04-02T19:55:01.574Z,24.30
2018-04-02T19:57:31.455Z,25.93
2018-04-02T20:00:00.646Z,23.87
2018-04-02T20:02:30.458Z,29.30
2018-04-02T20:05:00.347Z,32.73
2018-04-02T20:07:29.623Z,18.93
2018-04-02T20:09:59.594Z,19.37
2018-04-02T20:12:28.939Z,32.27
2018-04-02T20:14:58.678Z,19.17
2018-04-02T20:17:27.820Z,17.50
2018-04-02T20:19:56.779Z,22.67
2018-04-02T20:22:25.898Z,26.87
2018-04-02T20:24:54.871Z,28.53
2018-04-02T20:27:24.138Z,21.97
2018-04-02T20:29:53.114Z,41.10
2018-04-02T20:32:22.056Z,29.03
2018-04-02T20:34:51.110Z,32.30
2018-04-02T20:37:20.170Z,33.43
2018-04-02T20:39:50.057Z,30.40
2018-04-02T20:42:19.330Z,28.90
2018-04-02T20:44:48.355Z,33.87
2018-04-02T20:47:17.528Z,34.63
2018-04-02T20:49:47.270Z,25.83
2018-04-02T20:52:16.699Z,36.27
2018-04-02T20:54:46.486Z,31.80
2018-04-02T20:57:15.615Z,30.60
2018-04-02T20:59:44.542Z,30.83
2018-04-02T21:02:13.702Z,33.70
2018-04-02T21:04:42.643Z,38.03
2018-04-02T21:07:11.866Z,27.50
2018-04-02T21:09:40.858Z,29.90
2018-04-02T21:12:09.928Z,33.50
2018-04-02T21:14:38.965Z,33.77
2018-04-02T21:17:08.082Z,30.93
2018-04-02T21:19:38.035Z,31.67
2018-04-02T21:22:07.344Z,25.73
2018-04-02T21:24:36.335Z,23.03
2018-04-02T21:27:05.635Z,20.73
2018-04-02T21:29:36.331Z,36.73
2018-04-02T21:32:05.431Z,30.27
2018-04-02T21:34:34.351Z,25.13
2018-04-02T21:37:03.851Z,29.00
2018-04-02T21:39:33.023Z,23.33
2018-04-02T21:42:02.366Z,24.70
2018-04-02T21:44:31.462Z,36.77
2018-04-02T21:47:01.345Z,26.70
2018-04-02T21:49:30.254Z,22.33
2018-04-02T21:51:59.476Z,25.23
2018-04-02T21:54:29.127Z,34.20
2018-04-02T21:56:58.393Z,26.47
2018-04-02T21:59:27.483Z,28.80
2018-04-02T22:01:57.554Z,25.53
2018-04-02T22:04:26.766Z,26.37
2018-04-02T22:07:05.279Z,30.03
2018-04-02T22:09:35.320Z,33.27
2018-04-02T22:12:04.531Z,24.20
2018-04-02T22:14:33.656Z,29.47
2018-04-02T22:17:02.837Z,31.83
2018-04-02T22:19:31.935Z,30.43
2018-04-02T22:22:01.167Z,26.17
2018-04-02T22:24:30.156Z,34.13
2018-04-02T22:26:59.286Z,28.07
2018-04-02T22:29:28.247Z,38.10
2018-04-02T22:31:57.376Z,29.83
2018-04-02T22:34:26.298Z,33.13
2018-04-02T22:36:55.559Z,23.77
2018-04-02T22:39:24.739Z,23.27
2018-04-02T22:41:53.756Z,22.80
2018-04-02T22:44:22.684Z,24.30
2018-04-02T22:46:52.254Z,21.70
2018-04-02T22:49:21.530Z,30.40
2018-04-02T22:51:50.802Z,26.17
2018-04-02T22:54:20.035Z,24.60
2018-04-02T22:56:49.130Z,23.73
2018-04-02T22:59:18.028Z,30.77
2018-04-02T23:01:47.150Z,31.20
2018-04-02T23:04:16.115Z,24.33
2018-04-02T23:06:45.243Z,33.77
2018-04-02T23:09:14.198Z,24.63
2018-04-02T23:11:44.323Z,32.00
2018-04-02T23:14:13.494Z,29.87
2018-04-02T23:16:43.311Z,35.33
2018-04-02T23:19:12.912Z,34.30
2018-04-02T23:21:42.628Z,27.40
2018-04-02T23:24:11.655Z,27.63
2018-04-02T23:26:40.615Z,23.47
2018-04-02T23:29:09.638Z,23.07
2018-04-02T23:31:38.775Z,26.03
2018-04-02T23:34:08.646Z,26.93
2018-04-02T23:36:37.927Z,31.50
2018-04-02T23:39:07.023Z,31.20
2018-04-02T23:41:36.366Z,24.20
2018-04-02T23:44:05.307Z,25.80
2018-04-02T23:46:35.259Z,25.60
2018-04-02T23:49:04.535Z,33.23
2018-04-02T23:51:33.767Z,28.70
2018-04-02T23:54:02.764Z,25.73
2018-04-02T23:56:32.074Z,20.93
2018-04-02T23:59:01.231Z,36.80
